createdAt,value
2019-02-15T00:00:06.497Z,59.50
2019-02-15T00:04:12.752Z,59.40
2019-02-15T00:08:17.289Z,58.90
2019-02-15T00:12:21.899Z,58.70
2019-02-15T00:16:27.954Z,58.90
2019-02-15T00:20:36.423Z,59.10
2019-02-15T00:24:41.072Z,59.40
2019-02-15T00:28:45.613Z,59.20
2019-02-15T00:32:50.329Z,59.10
2019-02-15T00:36:54.891Z,59.20
2019-02-15T00:40:59.616Z,59.60
2019-02-15T00:45:04.471Z,59.40
2019-02-15T00:49:12.448Z,59.20
2019-02-15T00:53:26.431Z,59.60
2019-02-15T00:58:05.063Z,59.90
2019-02-15T01:02:16.048Z,59.90
2019-02-15T01:06:48.852Z,60.10
2019-02-15T01:11:11.583Z,60.10
2019-02-15T01:15:16.212Z,59.90
2019-02-15T01:19:20.824Z,60.00
2019-02-15T01:23:25.448Z,60.10
2019-02-15T01:27:47.901Z,60.40
2019-02-15T01:32:11.648Z,60.50
2019-02-15T01:36:25.485Z,60.50
2019-02-15T01:40:36.608Z,60.70
2019-02-15T01:44:48.205Z,61.10
2019-02-15T01:48:52.739Z,61.10
2019-02-15T01:52:57.390Z,61.40
2019-02-15T01:57:01.900Z,61.20
2019-02-15T02:01:06.730Z,61.20
2019-02-15T02:05:11.357Z,61.20
2019-02-15T02:09:16.166Z,61.50
2019-02-15T02:13:20.704Z,62.00
2019-02-15T02:17:25.236Z,62.30
2019-02-15T02:21:29.781Z,61.90
2019-02-15T02:25:34.320Z,61.50
2019-02-15T02:29:39.055Z,61.40
2019-02-15T02:33:43.603Z,61.70
2019-02-15T02:37:48.128Z,61.50
2019-02-15T02:41:52.675Z,61.50
2019-02-15T02:45:58.777Z,62.50
2019-02-15T02:50:03.599Z,61.90
2019-02-15T02:54:08.132Z,61.80
2019-02-15T02:58:12.968Z,62.30
2019-02-15T03:02:17.759Z,62.20
2019-02-15T03:06:22.306Z,62.70
2019-02-15T03:10:27.149Z,62.80
2019-02-15T03:14:31.696Z,62.60
2019-02-15T03:18:37.318Z,62.60
2019-02-15T03:22:41.832Z,62.70
2019-02-15T03:26:46.370Z,62.40
2019-02-15T03:30:51.077Z,62.60
2019-02-15T03:34:55.634Z,62.90
2019-02-15T03:39:13.104Z,62.80
2019-02-15T03:43:18.629Z,62.70
2019-02-15T03:47:26.149Z,62.70
2019-02-15T03:51:30.921Z,62.50
2019-02-15T03:55:35.456Z,62.20
2019-02-15T03:59:40.285Z,62.20
2019-02-15T04:03:44.836Z,62.50
2019-02-15T04:07:49.355Z,63.10
2019-02-15T04:11:53.914Z,63.30
2019-02-15T04:15:58.503Z,63.80
2019-02-15T04:20:03.605Z,64.20
2019-02-15T04:24:08.137Z,64.40
2019-02-15T04:28:12.681Z,64.40
2019-02-15T04:32:17.484Z,64.20
2019-02-15T04:36:22.054Z,64.30
2019-02-15T04:40:27.181Z,64.90
2019-02-15T04:44:31.721Z,65.20
2019-02-15T04:48:36.248Z,65.30
2019-02-15T04:52:41.077Z,65.70
2019-02-15T04:56:45.619Z,67.10
2019-02-15T05:00:50.487Z,67.50
2019-02-15T05:04:55.038Z,67.80
2019-02-15T05:09:00.029Z,68.10
2019-02-15T05:13:04.985Z,69.10
2019-02-15T05:17:09.532Z,70.00
2019-02-15T05:21:14.374Z,69.80
2019-02-15T05:25:18.932Z,71.00
2019-02-15T05:29:23.488Z,71.30
2019-02-15T05:33:28.007Z,71.20
2019-02-15T05:37:32.780Z,71.20
2019-02-15T05:41:37.628Z,70.40
2019-02-15T05:45:42.242Z,69.50
2019-02-15T05:49:47.316Z,68.20
2019-02-15T05:53:51.924Z,68.20
2019-02-15T05:57:56.478Z,67.70
2019-02-15T06:02:01.194Z,67.40
2019-02-15T06:06:06.102Z,67.30
2019-02-15T06:10:10.875Z,67.90
2019-02-15T06:14:16.571Z,67.90
2019-02-15T06:18:21.166Z,67.50
2019-02-15T06:22:25.715Z,67.40
2019-02-15T06:26:30.277Z,67.80
2019-02-15T06:30:35.072Z,67.90
2019-02-15T06:34:39.952Z,67.50
2019-02-15T06:38:44.543Z,67.20
2019-02-15T06:42:49.322Z,67.40
2019-02-15T06:46:54.044Z,67.60
2019-02-15T06:50:58.689Z,68.00
2019-02-15T06:55:03.372Z,67.50
2019-02-15T06:59:27.468Z,67.60
2019-02-15T07:03:43.150Z,67.60
2019-02-15T07:07:48.440Z,68.40
2019-02-15T07:11:53.306Z,68.20
2019-02-15T07:15:58.120Z,67.80
2019-02-15T07:20:02.974Z,67.60
2019-02-15T07:24:07.491Z,67.50
2019-02-15T07:28:12.049Z,67.60
2019-02-15T07:32:16.880Z,67.40
2019-02-15T07:36:22.521Z,66.80
2019-02-15T07:40:27.156Z,66.80
2019-02-15T07:44:31.705Z,66.70
2019-02-15T07:48:36.246Z,66.30
2019-02-15T07:52:40.797Z,66.20
2019-02-15T07:56:45.355Z,65.80
2019-02-15T08:00:49.931Z,65.50
2019-02-15T08:04:55.736Z,65.20
2019-02-15T08:09:00.380Z,65.10
2019-02-15T08:13:04.964Z,64.80
2019-02-15T08:17:09.488Z,64.50
2019-02-15T08:21:14.062Z,64.20
2019-02-15T08:25:18.595Z,63.80
2019-02-15T08:29:23.134Z,63.40
2019-02-15T08:33:27.671Z,63.00
2019-02-15T08:37:32.279Z,62.60
2019-02-15T08:41:37.139Z,62.40
2019-02-15T08:45:41.669Z,61.80
2019-02-15T08:49:46.196Z,61.10
2019-02-15T08:53:50.779Z,61.20
2019-02-15T08:57:55.325Z,61.00
2019-02-15T09:02:17.878Z,60.60
2019-02-15T09:06:22.450Z,60.20
2019-02-15T09:10:27.056Z,60.40
2019-02-15T09:14:31.610Z,60.30
2019-02-15T09:18:36.142Z,59.20
2019-02-15T09:22:40.716Z,58.40
2019-02-15T09:26:45.252Z,57.50
2019-02-15T09:30:54.199Z,58.20
2019-02-15T09:34:58.852Z,58.10
2019-02-15T09:39:04.820Z,58.40
2019-02-15T09:43:10.443Z,58.30
2019-02-15T09:47:14.984Z,58.10
2019-02-15T09:51:19.552Z,57.90
2019-02-15T09:55:24.073Z,57.80
2019-02-15T09:59:28.636Z,57.10
2019-02-15T10:03:33.167Z,56.60
2019-02-15T10:07:38.825Z,56.60
2019-02-15T10:11:43.407Z,56.20
2019-02-15T10:15:48.084Z,56.70
2019-02-15T10:19:52.881Z,54.90
2019-02-15T10:23:57.443Z,54.90
2019-02-15T10:28:02.043Z,54.60
2019-02-15T10:32:06.617Z,54.90
2019-02-15T10:36:11.170Z,54.30
2019-02-15T10:40:16.062Z,54.40
2019-02-15T10:44:20.596Z,53.90
2019-02-15T10:48:25.202Z,53.10
2019-02-15T10:52:29.813Z,52.80
2019-02-15T10:56:34.344Z,52.70
2019-02-15T11:00:38.965Z,52.90
2019-02-15T11:04:43.580Z,52.60
2019-02-15T11:08:48.148Z,51.40
2019-02-15T11:12:53.347Z,50.70
2019-02-15T11:16:57.885Z,49.60
2019-02-15T11:21:02.417Z,49.60
2019-02-15T11:25:08.177Z,49.70
2019-02-15T11:29:12.709Z,50.20
2019-02-15T11:33:17.352Z,49.30
2019-02-15T11:37:21.917Z,48.90
2019-02-15T11:41:26.454Z,48.50
2019-02-15T11:45:30.996Z,48.00
2019-02-15T11:49:35.575Z,47.50
2019-02-15T11:53:40.164Z,47.20
2019-02-15T11:57:44.748Z,46.50
2019-02-15T12:01:49.328Z,46.00
2019-02-15T12:05:53.921Z,46.70
2019-02-15T12:09:58.513Z,45.30
2019-02-15T12:14:03.081Z,45.30
2019-02-15T12:18:07.624Z,45.00
2019-02-15T12:22:12.159Z,44.10
2019-02-15T12:26:16.957Z,43.00
2019-02-15T12:30:21.536Z,42.00
2019-02-15T12:34:26.101Z,41.70
2019-02-15T12:38:30.634Z,41.20
2019-02-15T12:42:35.171Z,40.40
2019-02-15T12:46:39.692Z,40.50
2019-02-15T12:50:44.367Z,39.10
2019-02-15T12:54:48.929Z,39.60
2019-02-15T12:58:53.497Z,40.30
2019-02-15T13:02:58.081Z,40.00
2019-02-15T13:07:02.933Z,38.30
2019-02-15T13:11:07.537Z,35.50
2019-02-15T13:15:12.097Z,32.80
2019-02-15T13:19:16.648Z,29.50
2019-02-15T13:23:21.193Z,28.00
2019-02-15T13:27:25.758Z,25.80
2019-02-15T13:31:30.346Z,23.90
2019-02-15T13:35:34.912Z,23.50
2019-02-15T13:39:39.493Z,22.10
2019-02-15T13:43:44.064Z,20.10
2019-02-15T13:47:48.590Z,20.30
2019-02-15T13:51:53.160Z,19.90
2019-02-15T13:55:57.738Z,20.10
2019-02-15T14:00:02.351Z,20.10
2019-02-15T14:04:09.029Z,20.20
2019-02-15T14:08:13.560Z,20.30
2019-02-15T14:12:18.416Z,20.10
2019-02-15T14:16:22.972Z,20.20
2019-02-15T14:20:27.569Z,20.60
2019-02-15T14:24:32.362Z,20.80
2019-02-15T14:28:36.978Z,20.20
2019-02-15T14:32:41.511Z,19.70
2019-02-15T14:36:46.075Z,19.50
2019-02-15T14:40:50.620Z,19.70
2019-02-15T14:44:55.185Z,19.70
2019-02-15T14:48:59.734Z,20.00
2019-02-15T14:53:04.660Z,20.10
2019-02-15T14:57:09.199Z,20.60
2019-02-15T15:01:13.761Z,22.00
2019-02-15T15:05:18.300Z,22.80
2019-02-15T15:09:22.877Z,23.70
2019-02-15T15:13:27.438Z,24.60
2019-02-15T15:17:32.005Z,25.70
2019-02-15T15:21:36.555Z,25.70
2019-02-15T15:25:41.089Z,25.80
2019-02-15T15:29:45.693Z,25.70
2019-02-15T15:33:50.288Z,25.70
2019-02-15T15:37:57.028Z,26.20
2019-02-15T15:42:01.610Z,26.60
2019-02-15T15:46:06.191Z,27.50
2019-02-15T15:50:11.040Z,28.20
2019-02-15T15:54:15.585Z,28.80
2019-02-15T15:58:20.125Z,29.10
2019-02-15T16:02:24.684Z,29.20
2019-02-15T16:06:29.279Z,30.00
2019-02-15T16:10:33.861Z,31.00
2019-02-15T16:14:38.468Z,31.20
2019-02-15T16:18:42.993Z,31.30
2019-02-15T16:22:47.645Z,32.30
2019-02-15T16:26:52.202Z,32.90
2019-02-15T16:30:56.783Z,33.50
2019-02-15T16:35:01.372Z,34.50
2019-02-15T16:39:06.310Z,35.20
2019-02-15T16:43:10.905Z,36.10
2019-02-15T16:47:15.476Z,36.90
2019-02-15T16:51:20.069Z,37.70
2019-02-15T16:55:24.644Z,38.30
2019-02-15T16:59:29.216Z,38.70
2019-02-15T17:03:33.816Z,39.20
2019-02-15T17:07:38.389Z,39.60
2019-02-15T17:11:42.943Z,39.80
2019-02-15T17:15:47.484Z,40.30
2019-02-15T17:19:52.064Z,41.00
2019-02-15T17:23:56.882Z,41.60
2019-02-15T17:28:01.431Z,41.60
2019-02-15T17:32:06.353Z,42.40
2019-02-15T17:36:10.920Z,42.60
2019-02-15T17:40:15.540Z,43.30
2019-02-15T17:44:20.120Z,43.40
2019-02-15T17:48:24.668Z,43.50
2019-02-15T17:52:29.291Z,43.50
2019-02-15T17:56:33.890Z,43.70
2019-02-15T18:00:38.560Z,43.80
2019-02-15T18:04:43.512Z,44.00
2019-02-15T18:08:48.079Z,44.10
2019-02-15T18:12:52.649Z,44.00
2019-02-15T18:16:59.092Z,43.90
2019-02-15T18:21:04.056Z,43.90
2019-02-15T18:25:08.626Z,44.30
2019-02-15T18:29:15.284Z,44.10
2019-02-15T18:33:19.873Z,44.70
2019-02-15T18:37:25.812Z,45.50
2019-02-15T18:41:30.414Z,45.90
2019-02-15T18:45:34.944Z,46.00
2019-02-15T18:49:39.478Z,46.10
2019-02-15T18:53:45.359Z,46.10
2019-02-15T18:57:49.912Z,45.90
2019-02-15T19:01:54.471Z,46.20
2019-02-15T19:05:59.431Z,46.50
2019-02-15T19:10:04.918Z,47.20
2019-02-15T19:14:09.500Z,46.90
2019-02-15T19:18:14.374Z,47.50
2019-02-15T19:22:19.081Z,47.60
2019-02-15T19:26:23.757Z,47.90
2019-02-15T19:30:28.865Z,48.40
2019-02-15T19:34:33.471Z,48.20
2019-02-15T19:38:38.040Z,48.40
2019-02-15T19:42:45.222Z,48.60
2019-02-15T19:46:50.106Z,48.80
2019-02-15T19:50:56.837Z,48.80
2019-02-15T19:55:03.596Z,48.80
2019-02-15T19:59:08.500Z,48.90
2019-02-15T20:03:14.276Z,49.00
2019-02-15T20:07:20.441Z,49.40
2019-02-15T20:11:25.888Z,49.50
2019-02-15T20:15:32.742Z,49.60
2019-02-15T20:19:37.643Z,49.70
2019-02-15T20:23:43.343Z,50.00
2019-02-15T20:27:48.135Z,50.30
2019-02-15T20:31:52.792Z,50.30
2019-02-15T20:35:59.678Z,50.50
2019-02-15T20:40:04.585Z,51.00
2019-02-15T20:44:09.167Z,51.30
2019-02-15T20:48:13.895Z,51.10
2019-02-15T20:52:19.111Z,52.10
2019-02-15T20:56:23.675Z,52.60
2019-02-15T21:00:29.246Z,53.00
2019-02-15T21:04:33.925Z,52.70
2019-02-15T21:08:38.764Z,52.50
2019-02-15T21:12:43.620Z,52.50
2019-02-15T21:16:48.255Z,52.50
2019-02-15T21:20:52.964Z,52.70
2019-02-15T21:24:57.731Z,52.90
2019-02-15T21:29:02.357Z,53.10
2019-02-15T21:33:06.992Z,53.10
2019-02-15T21:37:11.609Z,53.20
2019-02-15T21:41:16.227Z,53.30
2019-02-15T21:45:21.040Z,53.40
2019-02-15T21:49:25.616Z,53.70
2019-02-15T21:53:30.202Z,53.90
2019-02-15T21:57:34.767Z,54.20
2019-02-15T22:01:39.540Z,54.40
2019-02-15T22:05:46.960Z,54.40
2019-02-15T22:09:52.027Z,54.50
2019-02-15T22:13:56.799Z,54.60
2019-02-15T22:18:01.357Z,54.70
2019-02-15T22:22:06.340Z,54.80
2019-02-15T22:26:11.106Z,55.10
2019-02-15T22:30:16.019Z,55.10
2019-02-15T22:34:20.763Z,55.40
2019-02-15T22:38:25.421Z,55.50
2019-02-15T22:42:30.019Z,55.90
2019-02-15T22:46:35.738Z,56.10
2019-02-15T22:50:40.653Z,56.30
2019-02-15T22:54:45.199Z,57.10
2019-02-15T22:58:51.717Z,56.30
2019-02-15T23:02:56.493Z,56.70
2019-02-15T23:07:01.025Z,57.10
2019-02-15T23:11:06.002Z,57.20
2019-02-15T23:15:10.688Z,57.20
2019-02-15T23:19:15.265Z,57.30
2019-02-15T23:23:19.794Z,57.10
2019-02-15T23:27:24.332Z,57.00
2019-02-15T23:31:31.070Z,57.20
2019-02-15T23:35:35.630Z,57.40
2019-02-15T23:39:40.271Z,57.30
2019-02-15T23:43:44.814Z,57.30
2019-02-15T23:47:49.357Z,57.50
2019-02-15T23:51:54.184Z,57.70
2019-02-15T23:55:59.009Z,57.60
